createdAt,value
2022-09-27T00:00:40.823Z,14.40
2022-09-27T00:05:53.259Z,14.41
2022-09-27T00:11:02.958Z,14.44
2022-09-27T00:16:18.460Z,14.40
2022-09-27T00:21:39.978Z,14.44
2022-09-27T00:26:48.120Z,14.39
2022-09-27T00:32:05.501Z,14.37
2022-09-27T00:37:27.282Z,14.32
2022-09-27T00:42:36.079Z,14.33
2022-09-27T00:47:55.245Z,14.28
2022-09-27T00:53:16.507Z,14.21
2022-09-27T00:58:25.820Z,14.15
2022-09-27T01:03:38.934Z,14.20
2022-09-27T01:08:48.929Z,14.15
2022-09-27T01:14:24.850Z,14.15
2022-09-27T01:19:50.180Z,14.11
2022-09-27T01:25:26.490Z,14.07
2022-09-27T01:30:45.620Z,14.08
2022-09-27T01:36:06.726Z,14.03
2022-09-27T01:41:23.602Z,14.04
2022-09-27T01:46:39.697Z,14.05
2022-09-27T01:52:28.123Z,14.04
2022-09-27T01:57:39.598Z,14.05
2022-09-27T02:03:02.415Z,14.07
2022-09-27T02:08:18.160Z,14.06
2022-09-27T02:13:42.167Z,14.07
2022-09-27T02:19:03.956Z,14.08
2022-09-27T02:24:32.624Z,14.09
2022-09-27T02:29:49.696Z,14.09
2022-09-27T02:35:20.300Z,14.11
2022-09-27T02:40:29.487Z,14.12
2022-09-27T02:45:57.104Z,14.13
2022-09-27T02:51:26.623Z,14.11
2022-09-27T02:56:40.956Z,14.11
2022-09-27T03:02:11.063Z,14.09
2022-09-27T03:07:21.414Z,14.05
2022-09-27T03:12:30.592Z,14.03
2022-09-27T03:17:44.043Z,13.96
2022-09-27T03:22:55.232Z,13.94
2022-09-27T03:28:05.000Z,13.96
2022-09-27T03:33:21.117Z,13.89
2022-09-27T03:38:37.358Z,13.87
2022-09-27T03:49:09.174Z,13.68
2022-09-27T03:54:20.435Z,13.63
2022-09-27T03:59:25.823Z,13.58
2022-09-27T04:04:32.183Z,13.52
2022-09-27T04:09:49.840Z,13.52
2022-09-27T04:15:03.276Z,13.43
2022-09-27T04:20:12.957Z,13.33
2022-09-27T04:25:22.092Z,13.29
2022-09-27T04:30:47.501Z,13.25
2022-09-27T04:36:13.205Z,13.20
2022-09-27T04:41:29.203Z,13.24
2022-09-27T04:52:02.640Z,13.11
2022-09-27T04:57:17.800Z,13.11
2022-09-27T05:02:41.098Z,13.01
2022-09-27T05:08:15.437Z,13.02
2022-09-27T05:13:31.983Z,12.98
2022-09-27T05:18:46.370Z,13.00
2022-09-27T05:24:02.163Z,12.99
2022-09-27T05:29:17.954Z,12.98
2022-09-27T05:34:35.482Z,12.96
2022-09-27T05:39:40.439Z,13.01
2022-09-27T05:44:48.862Z,13.00
2022-09-27T05:50:09.168Z,13.09
2022-09-27T05:55:19.856Z,13.10
2022-09-27T06:00:28.293Z,13.11
2022-09-27T06:05:51.789Z,13.15
2022-09-27T06:11:09.361Z,13.20
2022-09-27T06:16:15.423Z,13.17
2022-09-27T06:21:20.939Z,13.18
2022-09-27T06:26:29.903Z,13.18
2022-09-27T06:31:36.900Z,13.25
2022-09-27T06:37:08.071Z,13.27
2022-09-27T06:42:20.286Z,13.30
2022-09-27T06:47:51.913Z,13.37
2022-09-27T06:53:03.978Z,13.44
2022-09-27T06:58:29.695Z,13.45
2022-09-27T07:03:51.483Z,13.50
2022-09-27T07:09:03.915Z,13.46
2022-09-27T07:14:13.241Z,13.56
2022-09-27T07:19:44.234Z,13.69
2022-09-27T07:24:56.214Z,13.77
2022-09-27T07:30:13.195Z,13.84
2022-09-27T07:35:32.200Z,13.97
2022-09-27T07:40:43.046Z,13.96
2022-09-27T07:46:05.923Z,14.04
2022-09-27T07:51:17.589Z,14.08
2022-09-27T07:56:30.268Z,14.16
2022-09-27T08:01:40.129Z,14.24
2022-09-27T08:06:55.384Z,14.37
2022-09-27T08:12:06.831Z,14.48
2022-09-27T08:17:16.674Z,14.59
2022-09-27T08:22:23.039Z,14.74
2022-09-27T08:27:32.021Z,14.84
2022-09-27T08:32:46.710Z,14.76
2022-09-27T08:38:01.505Z,14.74
2022-09-27T08:43:20.466Z,14.59
2022-09-27T08:48:31.224Z,14.56
2022-09-27T08:53:43.917Z,14.50
2022-09-27T08:59:06.604Z,14.32
2022-09-27T09:04:17.733Z,14.26
2022-09-27T09:09:36.389Z,14.19
2022-09-27T09:15:02.762Z,14.17
2022-09-27T09:20:23.914Z,14.26
2022-09-27T09:25:48.978Z,14.33
2022-09-27T09:31:11.246Z,14.27
2022-09-27T09:36:33.502Z,14.26
2022-09-27T09:41:44.294Z,14.19
2022-09-27T09:46:58.341Z,14.08
2022-09-27T09:52:13.745Z,14.04
2022-09-27T09:57:28.674Z,14.00
2022-09-27T10:02:42.076Z,13.99
2022-09-27T10:07:51.142Z,14.09
2022-09-27T10:13:05.413Z,14.29
2022-09-27T10:18:18.991Z,14.46
2022-09-27T10:23:29.678Z,14.57
2022-09-27T10:28:47.518Z,14.57
2022-09-27T10:34:01.957Z,14.50
2022-09-27T10:39:37.631Z,14.51
2022-09-27T10:44:50.572Z,14.59
2022-09-27T10:55:33.051Z,14.68
2022-09-27T11:00:40.559Z,14.65
2022-09-27T11:05:45.967Z,14.60
2022-09-27T11:11:11.781Z,14.81
2022-09-27T11:16:31.065Z,15.03
2022-09-27T11:21:51.134Z,15.24
2022-09-27T11:27:06.594Z,15.40
2022-09-27T11:32:30.159Z,15.61
2022-09-27T11:37:47.855Z,15.50
2022-09-27T11:43:17.859Z,15.25
2022-09-27T11:48:45.286Z,15.23
2022-09-27T12:00:19.411Z,14.98
2022-09-27T12:05:57.819Z,14.89
2022-09-27T12:11:17.469Z,14.92
2022-09-27T12:16:28.176Z,14.97
2022-09-27T12:21:56.377Z,15.13
2022-09-27T12:27:12.475Z,15.27
2022-09-27T12:32:31.282Z,15.33
2022-09-27T12:38:07.665Z,15.45
2022-09-27T12:43:19.159Z,15.41
2022-09-27T12:48:40.076Z,15.39
2022-09-27T12:54:06.745Z,15.50
2022-09-27T12:59:28.101Z,15.68
2022-09-27T13:04:45.127Z,15.81
2022-09-27T13:10:28.779Z,15.95
2022-09-27T13:15:47.743Z,16.02
2022-09-27T13:20:57.001Z,16.11
2022-09-27T13:26:13.322Z,16.00
2022-09-27T13:31:22.214Z,16.09
2022-09-27T13:36:35.799Z,16.16
2022-09-27T13:42:05.673Z,16.19
2022-09-27T13:47:26.978Z,16.29
2022-09-27T13:52:38.383Z,16.34
2022-09-27T13:57:56.619Z,16.38
2022-09-27T14:03:34.818Z,16.34
2022-09-27T14:08:51.930Z,16.33
2022-09-27T14:14:07.596Z,16.20
2022-09-27T14:19:48.724Z,16.01
2022-09-27T14:25:06.745Z,15.80
2022-09-27T14:30:24.683Z,15.46
2022-09-27T14:35:51.604Z,15.33
2022-09-27T14:41:07.332Z,15.23
2022-09-27T14:46:49.504Z,15.40
2022-09-27T14:51:56.298Z,15.50
2022-09-27T15:03:09.354Z,15.33
2022-09-27T15:08:27.491Z,15.21
2022-09-27T15:13:50.258Z,15.09
2022-09-27T15:19:23.870Z,14.93
2022-09-27T15:25:11.996Z,14.86
2022-09-27T15:30:32.739Z,14.74
2022-09-27T15:35:50.517Z,14.66
2022-09-27T15:41:21.402Z,14.58
2022-09-27T15:46:44.322Z,14.47
2022-09-27T15:51:52.974Z,14.38
2022-09-27T15:57:03.227Z,14.33
2022-09-27T16:02:17.660Z,14.31
2022-09-27T16:12:50.678Z,14.16
2022-09-27T16:17:56.720Z,14.09
2022-09-27T16:23:06.130Z,14.03
2022-09-27T16:28:13.851Z,13.94
2022-09-27T16:33:38.132Z,13.93
2022-09-27T16:38:55.751Z,13.90
2022-09-27T16:44:05.179Z,13.83
2022-09-27T16:49:32.087Z,13.75
2022-09-27T16:54:48.514Z,13.72
2022-09-27T16:59:59.028Z,13.62
2022-09-27T17:05:13.725Z,13.53
2022-09-27T17:10:24.772Z,13.53
2022-09-27T17:15:33.455Z,13.57
2022-09-27T17:21:08.923Z,13.57
2022-09-27T17:26:28.936Z,13.51
2022-09-27T17:31:34.929Z,13.41
2022-09-27T17:36:48.551Z,13.30
2022-09-27T17:42:02.389Z,13.23
2022-09-27T17:47:24.688Z,13.13
2022-09-27T17:52:44.804Z,13.04
2022-09-27T17:57:54.006Z,12.99
2022-09-27T18:03:01.259Z,12.98
2022-09-27T18:08:07.756Z,12.93
2022-09-27T18:13:17.843Z,12.88
2022-09-27T18:18:25.277Z,12.88
2022-09-27T18:23:32.685Z,12.88
2022-09-27T18:28:45.982Z,12.84
2022-09-27T18:33:52.207Z,12.85
2022-09-27T18:39:01.621Z,12.87
2022-09-27T18:44:09.642Z,12.79
2022-09-27T18:49:22.234Z,12.80
2022-09-27T18:54:34.508Z,12.86
2022-09-27T19:00:04.739Z,12.84
2022-09-27T19:05:16.813Z,12.82
2022-09-27T19:10:22.706Z,12.85
2022-09-27T19:15:38.289Z,12.82
2022-09-27T19:20:43.134Z,12.76
2022-09-27T19:26:02.987Z,12.70
2022-09-27T19:31:26.586Z,12.68
2022-09-27T19:36:49.217Z,12.64
2022-09-27T19:47:25.728Z,12.57
2022-09-27T19:52:33.824Z,12.56
2022-09-27T19:57:39.246Z,12.54
2022-09-27T20:02:48.518Z,12.50
2022-09-27T20:07:56.566Z,12.45
2022-09-27T20:13:07.734Z,12.41
2022-09-27T20:18:24.115Z,12.37
2022-09-27T20:23:31.688Z,12.35
2022-09-27T20:28:46.902Z,12.32
2022-09-27T20:33:58.282Z,12.29
2022-09-27T20:39:19.353Z,12.33
2022-09-27T20:44:33.467Z,12.30
2022-09-27T20:49:49.726Z,12.19
2022-09-27T20:55:04.535Z,12.07
2022-09-27T21:00:22.484Z,12.01
2022-09-27T21:05:36.407Z,11.96
2022-09-27T21:10:52.511Z,11.91
2022-09-27T21:16:06.323Z,11.84
2022-09-27T21:21:15.990Z,11.77
2022-09-27T21:26:27.623Z,11.70
2022-09-27T21:31:43.909Z,11.64
2022-09-27T21:37:12.416Z,11.60
2022-09-27T21:42:20.983Z,11.51
2022-09-27T21:47:25.312Z,11.48
2022-09-27T21:52:48.908Z,11.44
2022-09-27T21:58:00.639Z,11.37
2022-09-27T22:03:09.851Z,11.32
2022-09-27T22:08:27.630Z,11.31
2022-09-27T22:13:51.415Z,11.26
2022-09-27T22:19:09.654Z,11.21
2022-09-27T22:24:23.518Z,11.16
2022-09-27T22:29:30.380Z,11.14
2022-09-27T22:34:37.579Z,11.10
2022-09-27T22:39:52.884Z,11.06
2022-09-27T22:45:05.239Z,11.06
2022-09-27T22:50:12.259Z,11.14
2022-09-27T22:55:26.427Z,11.20
2022-09-27T23:00:36.501Z,11.19
2022-09-27T23:05:48.102Z,11.12
2022-09-27T23:10:56.331Z,11.06
2022-09-27T23:16:02.974Z,11.07
2022-09-27T23:21:30.407Z,11.04
2022-09-27T23:26:43.534Z,10.98
2022-09-27T23:31:52.903Z,10.87
2022-09-27T23:37:06.851Z,10.82
2022-09-27T23:42:32.417Z,10.85
2022-09-27T23:47:52.054Z,10.79
2022-09-27T23:53:10.636Z,10.77
2022-09-27T23:58:23.151Z,10.78
